sensor_id;sensor_type;location;lat;lon;timestamp;temperature;humidity
43089;DHT22;28709;52.030;5.652;2024-03-02T00:00:09;9.20;99.90
43089;DHT22;28709;52.030;5.652;2024-03-02T00:02:41;9.20;99.90
43089;DHT22;28709;52.030;5.652;2024-03-02T00:05:07;9.20;99.90
43089;DHT22;28709;52.030;5.652;2024-03-02T00:07:33;9.20;99.90
43089;DHT22;28709;52.030;5.652;2024-03-02T00:10:00;9.20;99.90
43089;DHT22;28709;52.030;5.652;2024-03-02T00:12:26;9.20;99.90
43089;DHT22;28709;52.030;5.652;2024-03-02T00:14:51;9.20;99.90
43089;DHT22;28709;52.030;5.652;2024-03-02T00:17:25;9.20;99.90
43089;DHT22;28709;52.030;5.652;2024-03-02T00:19:53;9.20;99.90
43089;DHT22;28709;52.030;5.652;2024-03-02T00:22:20;9.20;99.90
43089;DHT22;28709;52.030;5.652;2024-03-02T00:24:45;9.20;99.90
43089;DHT22;28709;52.030;5.652;2024-03-02T00:27:14;9.10;99.90
43089;DHT22;28709;52.030;5.652;2024-03-02T00:29:40;9.10;99.90
43089;DHT22;28709;52.030;5.652;2024-03-02T00:32:17;9.20;99.90
43089;DHT22;28709;52.030;5.652;2024-03-02T00:34:42;9.20;99.90
43089;DHT22;28709;52.030;5.652;2024-03-02T00:37:08;9.10;99.90
43089;DHT22;28709;52.030;5.652;2024-03-02T00:39:34;9.00;99.90
43089;DHT22;28709;52.030;5.652;2024-03-02T00:42:01;8.90;99.90
43089;DHT22;28709;52.030;5.652;2024-03-02T00:44:26;8.90;99.90
43089;DHT22;28709;52.030;5.652;2024-03-02T00:46:53;8.80;99.90
43089;DHT22;28709;52.030;5.652;2024-03-02T00:49:22;8.80;99.90
43089;DHT22;28709;52.030;5.652;2024-03-02T00:51:49;8.80;99.90
43089;DHT22;28709;52.030;5.652;2024-03-02T00:54:15;8.90;99.90
43089;DHT22;28709;52.030;5.652;2024-03-02T00:56:44;8.90;99.90
43089;DHT22;28709;52.030;5.652;2024-03-02T00:59:10;9.00;99.90
43089;DHT22;28709;52.030;5.652;2024-03-02T01:01:36;9.00;99.90
43089;DHT22;28709;52.030;5.652;2024-03-02T01:04:02;9.00;99.90
43089;DHT22;28709;52.030;5.652;2024-03-02T01:06:27;9.00;99.90
43089;DHT22;28709;52.030;5.652;2024-03-02T01:08:53;8.90;99.90
43089;DHT22;28709;52.030;5.652;2024-03-02T01:11:19;8.90;99.90
43089;DHT22;28709;52.030;5.652;2024-03-02T01:13:47;8.80;99.90
43089;DHT22;28709;52.030;5.652;2024-03-02T01:16:13;8.80;99.90
43089;DHT22;28709;52.030;5.652;2024-03-02T01:18:39;8.70;99.90
43089;DHT22;28709;52.030;5.652;2024-03-02T01:21:05;8.70;99.90
43089;DHT22;28709;52.030;5.652;2024-03-02T01:23:30;8.70;99.90
43089;DHT22;28709;52.030;5.652;2024-03-02T01:25:56;8.60;99.90
43089;DHT22;28709;52.030;5.652;2024-03-02T01:28:22;8.60;99.90
43089;DHT22;28709;52.030;5.652;2024-03-02T01:30:48;8.50;99.90
43089;DHT22;28709;52.030;5.652;2024-03-02T01:33:14;8.40;99.90
43089;DHT22;28709;52.030;5.652;2024-03-02T01:35:40;8.30;99.90
43089;DHT22;28709;52.030;5.652;2024-03-02T01:38:06;8.30;99.90
43089;DHT22;28709;52.030;5.652;2024-03-02T01:40:33;8.20;99.90
43089;DHT22;28709;52.030;5.652;2024-03-02T01:42:59;8.10;99.90
43089;DHT22;28709;52.030;5.652;2024-03-02T01:45:25;8.10;99.90
43089;DHT22;28709;52.030;5.652;2024-03-02T01:47:50;8.10;99.90
43089;DHT22;28709;52.030;5.652;2024-03-02T01:50:33;8.10;99.90
43089;DHT22;28709;52.030;5.652;2024-03-02T01:53:01;8.10;99.90
43089;DHT22;28709;52.030;5.652;2024-03-02T01:55:28;8.10;99.90
43089;DHT22;28709;52.030;5.652;2024-03-02T01:57:55;8.00;99.90
43089;DHT22;28709;52.030;5.652;2024-03-02T02:00:21;8.00;99.90
43089;DHT22;28709;52.030;5.652;2024-03-02T02:02:48;8.00;99.90
43089;DHT22;28709;52.030;5.652;2024-03-02T02:05:14;8.00;99.90
43089;DHT22;28709;52.030;5.652;2024-03-02T02:07:43;8.00;99.90
43089;DHT22;28709;52.030;5.652;2024-03-02T02:10:12;8.00;99.90
43089;DHT22;28709;52.030;5.652;2024-03-02T02:12:38;8.00;99.90
43089;DHT22;28709;52.030;5.652;2024-03-02T02:15:21;8.00;99.90
43089;DHT22;28709;52.030;5.652;2024-03-02T02:17:47;7.90;99.90
43089;DHT22;28709;52.030;5.652;2024-03-02T02:20:12;7.90;99.90
43089;DHT22;28709;52.030;5.652;2024-03-02T02:22:38;7.90;99.90
43089;DHT22;28709;52.030;5.652;2024-03-02T02:25:04;7.90;99.90
43089;DHT22;28709;52.030;5.652;2024-03-02T02:27:29;7.90;99.90
43089;DHT22;28709;52.030;5.652;2024-03-02T02:29:56;7.90;99.90
43089;DHT22;28709;52.030;5.652;2024-03-02T02:32:21;7.80;99.90
43089;DHT22;28709;52.030;5.652;2024-03-02T02:34:51;7.90;99.90
43089;DHT22;28709;52.030;5.652;2024-03-02T02:37:17;7.90;99.90
43089;DHT22;28709;52.030;5.652;2024-03-02T02:39:43;7.80;99.90
43089;DHT22;28709;52.030;5.652;2024-03-02T02:44:35;7.80;99.90
43089;DHT22;28709;52.030;5.652;2024-03-02T03:08:55;7.60;99.90
43089;DHT22;28709;52.030;5.652;2024-03-02T03:11:20;7.50;99.90
43089;DHT22;28709;52.030;5.652;2024-03-02T03:13:48;7.50;99.90
43089;DHT22;28709;52.030;5.652;2024-03-02T03:16:13;7.40;99.90
43089;DHT22;28709;52.030;5.652;2024-03-02T03:23:31;7.40;99.90
43089;DHT22;28709;52.030;5.652;2024-03-02T03:25:57;7.50;99.90
43089;DHT22;28709;52.030;5.652;2024-03-02T03:28:22;7.30;99.90
43089;DHT22;28709;52.030;5.652;2024-03-02T03:30:48;7.40;99.90
43089;DHT22;28709;52.030;5.652;2024-03-02T03:35:39;7.30;99.90
43089;DHT22;28709;52.030;5.652;2024-03-02T03:38:05;7.50;99.90
43089;DHT22;28709;52.030;5.652;2024-03-02T03:40:31;7.40;99.90
43089;DHT22;28709;52.030;5.652;2024-03-02T03:42:56;7.30;99.90
43089;DHT22;28709;52.030;5.652;2024-03-02T03:45:22;7.50;99.90
43089;DHT22;28709;52.030;5.652;2024-03-02T03:50:15;7.40;99.90
43089;DHT22;28709;52.030;5.652;2024-03-02T03:55:06;7.40;99.90
43089;DHT22;28709;52.030;5.652;2024-03-02T03:57:32;7.40;99.90
43089;DHT22;28709;52.030;5.652;2024-03-02T03:59:58;7.40;99.90
43089;DHT22;28709;52.030;5.652;2024-03-02T04:02:23;7.40;99.90
43089;DHT22;28709;52.030;5.652;2024-03-02T04:04:50;7.30;99.90
43089;DHT22;28709;52.030;5.652;2024-03-02T04:07:15;7.30;99.90
43089;DHT22;28709;52.030;5.652;2024-03-02T04:09:41;7.20;99.90
43089;DHT22;28709;52.030;5.652;2024-03-02T04:12:07;7.20;99.90
43089;DHT22;28709;52.030;5.652;2024-03-02T04:14:32;7.20;99.90
43089;DHT22;28709;52.030;5.652;2024-03-02T04:16:58;7.20;99.90
43089;DHT22;28709;52.030;5.652;2024-03-02T04:19:23;7.20;99.90
43089;DHT22;28709;52.030;5.652;2024-03-02T04:21:50;7.20;99.90
43089;DHT22;28709;52.030;5.652;2024-03-02T04:24:16;7.20;99.90
43089;DHT22;28709;52.030;5.652;2024-03-02T04:26:41;7.20;99.90
43089;DHT22;28709;52.030;5.652;2024-03-02T04:29:07;7.20;99.90
43089;DHT22;28709;52.030;5.652;2024-03-02T04:31:33;7.20;99.90
43089;DHT22;28709;52.030;5.652;2024-03-02T04:33:58;7.20;99.90
43089;DHT22;28709;52.030;5.652;2024-03-02T04:36:25;7.20;99.90
43089;DHT22;28709;52.030;5.652;2024-03-02T04:38:51;7.20;99.90
43089;DHT22;28709;52.030;5.652;2024-03-02T04:41:17;7.20;99.90
43089;DHT22;28709;52.030;5.652;2024-03-02T04:43:42;7.20;99.90
43089;DHT22;28709;52.030;5.652;2024-03-02T04:46:08;7.20;99.90
43089;DHT22;28709;52.030;5.652;2024-03-02T04:48:33;7.20;99.90
43089;DHT22;28709;52.030;5.652;2024-03-02T04:51:00;7.20;99.90
43089;DHT22;28709;52.030;5.652;2024-03-02T04:53:26;7.20;99.90
43089;DHT22;28709;52.030;5.652;2024-03-02T04:55:52;7.20;99.90
43089;DHT22;28709;52.030;5.652;2024-03-02T04:58:43;7.20;99.90
43089;DHT22;28709;52.030;5.652;2024-03-02T05:01:09;7.30;99.90
43089;DHT22;28709;52.030;5.652;2024-03-02T05:03:34;7.30;99.90
43089;DHT22;28709;52.030;5.652;2024-03-02T05:06:00;7.30;99.90
43089;DHT22;28709;52.030;5.652;2024-03-02T05:08:26;7.30;99.90
43089;DHT22;28709;52.030;5.652;2024-03-02T05:10:51;7.20;99.90
43089;DHT22;28709;52.030;5.652;2024-03-02T05:13:17;7.20;99.90
43089;DHT22;28709;52.030;5.652;2024-03-02T05:15:43;7.20;99.90
43089;DHT22;28709;52.030;5.652;2024-03-02T05:18:09;7.20;99.90
43089;DHT22;28709;52.030;5.652;2024-03-02T05:20:34;7.10;99.90
43089;DHT22;28709;52.030;5.652;2024-03-02T05:23:00;7.20;99.90
43089;DHT22;28709;52.030;5.652;2024-03-02T05:25:25;7.20;99.90
43089;DHT22;28709;52.030;5.652;2024-03-02T05:27:51;7.10;99.90
43089;DHT22;28709;52.030;5.652;2024-03-02T05:30:17;7.10;99.90
43089;DHT22;28709;52.030;5.652;2024-03-02T05:32:42;7.10;99.90
43089;DHT22;28709;52.030;5.652;2024-03-02T05:35:08;7.10;99.90
43089;DHT22;28709;52.030;5.652;2024-03-02T05:37:36;7.10;99.90
43089;DHT22;28709;52.030;5.652;2024-03-02T05:40:01;7.10;99.90
43089;DHT22;28709;52.030;5.652;2024-03-02T05:42:28;7.10;99.90
43089;DHT22;28709;52.030;5.652;2024-03-02T05:44:53;7.10;99.90
43089;DHT22;28709;52.030;5.652;2024-03-02T05:47:19;7.10;99.90
43089;DHT22;28709;52.030;5.652;2024-03-02T05:49:45;7.10;99.90
43089;DHT22;28709;52.030;5.652;2024-03-02T05:52:11;7.10;99.90
43089;DHT22;28709;52.030;5.652;2024-03-02T05:54:37;7.10;99.90
43089;DHT22;28709;52.030;5.652;2024-03-02T05:57:04;7.10;99.90
43089;DHT22;28709;52.030;5.652;2024-03-02T05:59:42;7.20;99.90
43089;DHT22;28709;52.030;5.652;2024-03-02T06:02:09;7.20;99.90
43089;DHT22;28709;52.030;5.652;2024-03-02T06:04:34;7.20;99.90
43089;DHT22;28709;52.030;5.652;2024-03-02T06:07:00;7.20;99.90
43089;DHT22;28709;52.030;5.652;2024-03-02T06:09:26;7.20;99.90
43089;DHT22;28709;52.030;5.652;2024-03-02T06:11:51;7.10;99.90
43089;DHT22;28709;52.030;5.652;2024-03-02T06:14:17;7.10;99.90
43089;DHT22;28709;52.030;5.652;2024-03-02T06:16:43;7.00;99.90
43089;DHT22;28709;52.030;5.652;2024-03-02T06:19:08;7.00;99.90
43089;DHT22;28709;52.030;5.652;2024-03-02T06:21:34;7.00;99.90
43089;DHT22;28709;52.030;5.652;2024-03-02T06:23:59;6.90;99.90
43089;DHT22;28709;52.030;5.652;2024-03-02T06:26:26;6.90;99.90
43089;DHT22;28709;52.030;5.652;2024-03-02T06:28:52;6.90;99.90
43089;DHT22;28709;52.030;5.652;2024-03-02T06:31:17;6.80;99.90
43089;DHT22;28709;52.030;5.652;2024-03-02T06:33:43;6.80;99.90
43089;DHT22;28709;52.030;5.652;2024-03-02T06:36:09;6.80;99.90
43089;DHT22;28709;52.030;5.652;2024-03-02T06:38:35;6.80;99.90
43089;DHT22;28709;52.030;5.652;2024-03-02T06:41:00;6.80;99.90
43089;DHT22;28709;52.030;5.652;2024-03-02T06:43:26;6.80;99.90
43089;DHT22;28709;52.030;5.652;2024-03-02T06:45:52;6.80;99.90
43089;DHT22;28709;52.030;5.652;2024-03-02T06:48:19;6.80;99.90
43089;DHT22;28709;52.030;5.652;2024-03-02T06:50:49;6.90;99.90
43089;DHT22;28709;52.030;5.652;2024-03-02T06:53:15;7.00;99.90
43089;DHT22;28709;52.030;5.652;2024-03-02T06:55:45;7.00;99.90
43089;DHT22;28709;52.030;5.652;2024-03-02T06:58:12;7.00;99.90
43089;DHT22;28709;52.030;5.652;2024-03-02T07:00:38;7.00;99.90
43089;DHT22;28709;52.030;5.652;2024-03-02T07:03:04;7.00;99.90
43089;DHT22;28709;52.030;5.652;2024-03-02T07:05:30;7.00;99.90
43089;DHT22;28709;52.030;5.652;2024-03-02T07:07:56;7.00;99.90
43089;DHT22;28709;52.030;5.652;2024-03-02T07:10:21;7.00;99.90
43089;DHT22;28709;52.030;5.652;2024-03-02T07:12:47;6.90;99.90
43089;DHT22;28709;52.030;5.652;2024-03-02T07:15:12;7.00;99.90
43089;DHT22;28709;52.030;5.652;2024-03-02T07:17:55;7.20;99.90
43089;DHT22;28709;52.030;5.652;2024-03-02T07:20:21;7.40;99.90
43089;DHT22;28709;52.030;5.652;2024-03-02T07:22:47;7.50;99.90
43089;DHT22;28709;52.030;5.652;2024-03-02T07:25:12;7.60;99.90
43089;DHT22;28709;52.030;5.652;2024-03-02T07:27:39;7.70;99.90
43089;DHT22;28709;52.030;5.652;2024-03-02T07:30:05;7.80;99.90
43089;DHT22;28709;52.030;5.652;2024-03-02T07:32:31;7.90;99.90
43089;DHT22;28709;52.030;5.652;2024-03-02T07:34:57;8.00;99.90
43089;DHT22;28709;52.030;5.652;2024-03-02T07:37:23;8.00;99.90
43089;DHT22;28709;52.030;5.652;2024-03-02T07:39:51;8.10;99.90
43089;DHT22;28709;52.030;5.652;2024-03-02T07:42:17;8.20;99.90
43089;DHT22;28709;52.030;5.652;2024-03-02T07:44:46;8.20;99.90
43089;DHT22;28709;52.030;5.652;2024-03-02T07:47:11;8.40;99.90
43089;DHT22;28709;52.030;5.652;2024-03-02T07:49:37;8.60;99.90
43089;DHT22;28709;52.030;5.652;2024-03-02T07:52:03;8.90;99.90
43089;DHT22;28709;52.030;5.652;2024-03-02T07:54:29;9.20;99.90
43089;DHT22;28709;52.030;5.652;2024-03-02T07:56:55;9.60;99.90
43089;DHT22;28709;52.030;5.652;2024-03-02T07:59:20;10.00;99.90
43089;DHT22;28709;52.030;5.652;2024-03-02T08:01:49;10.30;99.90
43089;DHT22;28709;52.030;5.652;2024-03-02T08:04:14;10.60;99.90
43089;DHT22;28709;52.030;5.652;2024-03-02T08:06:40;10.70;99.90
43089;DHT22;28709;52.030;5.652;2024-03-02T08:09:06;10.70;99.90
43089;DHT22;28709;52.030;5.652;2024-03-02T08:11:35;10.70;99.90
43089;DHT22;28709;52.030;5.652;2024-03-02T08:14:01;10.60;99.90
43089;DHT22;28709;52.030;5.652;2024-03-02T08:16:26;10.40;99.90
43089;DHT22;28709;52.030;5.652;2024-03-02T08:18:52;10.30;99.90
43089;DHT22;28709;52.030;5.652;2024-03-02T08:21:18;10.10;99.90
43089;DHT22;28709;52.030;5.652;2024-03-02T08:23:44;10.00;99.90
43089;DHT22;28709;52.030;5.652;2024-03-02T08:26:11;9.90;99.90
43089;DHT22;28709;52.030;5.652;2024-03-02T08:28:37;9.80;99.90
43089;DHT22;28709;52.030;5.652;2024-03-02T08:31:03;9.80;99.90
43089;DHT22;28709;52.030;5.652;2024-03-02T08:33:29;9.80;99.90
43089;DHT22;28709;52.030;5.652;2024-03-02T08:35:55;9.80;99.90
43089;DHT22;28709;52.030;5.652;2024-03-02T08:38:21;9.70;99.90
43089;DHT22;28709;52.030;5.652;2024-03-02T08:40:47;9.60;99.90
43089;DHT22;28709;52.030;5.652;2024-03-02T08:43:13;9.50;99.90
43089;DHT22;28709;52.030;5.652;2024-03-02T08:45:39;9.50;99.90
43089;DHT22;28709;52.030;5.652;2024-03-02T08:48:09;9.60;99.90
43089;DHT22;28709;52.030;5.652;2024-03-02T08:50:35;9.70;99.90
43089;DHT22;28709;52.030;5.652;2024-03-02T08:53:03;9.90;99.90
43089;DHT22;28709;52.030;5.652;2024-03-02T08:55:28;10.10;99.90
43089;DHT22;28709;52.030;5.652;2024-03-02T08:57:55;10.30;99.90
43089;DHT22;28709;52.030;5.652;2024-03-02T09:00:22;10.50;99.90
43089;DHT22;28709;52.030;5.652;2024-03-02T09:02:47;10.60;99.90
43089;DHT22;28709;52.030;5.652;2024-03-02T09:05:13;10.80;99.90
43089;DHT22;28709;52.030;5.652;2024-03-02T09:07:39;10.90;99.90
43089;DHT22;28709;52.030;5.652;2024-03-02T09:10:08;10.90;99.90
43089;DHT22;28709;52.030;5.652;2024-03-02T09:12:34;10.90;99.90
43089;DHT22;28709;52.030;5.652;2024-03-02T09:15:01;11.10;99.90
43089;DHT22;28709;52.030;5.652;2024-03-02T09:17:28;11.30;99.90
43089;DHT22;28709;52.030;5.652;2024-03-02T09:19:53;11.80;99.90
43089;DHT22;28709;52.030;5.652;2024-03-02T09:22:19;12.20;99.90
43089;DHT22;28709;52.030;5.652;2024-03-02T09:24:45;12.40;99.90
43089;DHT22;28709;52.030;5.652;2024-03-02T09:27:11;12.60;99.90
43089;DHT22;28709;52.030;5.652;2024-03-02T09:29:37;12.90;99.90
43089;DHT22;28709;52.030;5.652;2024-03-02T09:32:03;13.00;99.90
43089;DHT22;28709;52.030;5.652;2024-03-02T09:34:29;13.00;99.90
43089;DHT22;28709;52.030;5.652;2024-03-02T09:36:55;13.10;99.90
43089;DHT22;28709;52.030;5.652;2024-03-02T09:39:21;13.20;99.90
43089;DHT22;28709;52.030;5.652;2024-03-02T09:41:47;13.30;99.90
43089;DHT22;28709;52.030;5.652;2024-03-02T09:44:15;13.60;99.90
43089;DHT22;28709;52.030;5.652;2024-03-02T09:46:41;13.80;99.90
43089;DHT22;28709;52.030;5.652;2024-03-02T09:49:10;13.60;99.90
43089;DHT22;28709;52.030;5.652;2024-03-02T09:51:37;13.70;99.90
43089;DHT22;28709;52.030;5.652;2024-03-02T09:54:07;13.70;99.90
43089;DHT22;28709;52.030;5.652;2024-03-02T09:56:33;13.70;99.90
43089;DHT22;28709;52.030;5.652;2024-03-02T09:58:59;13.60;99.90
43089;DHT22;28709;52.030;5.652;2024-03-02T10:01:25;13.80;99.90
43089;DHT22;28709;52.030;5.652;2024-03-02T10:03:51;13.90;99.90
43089;DHT22;28709;52.030;5.652;2024-03-02T10:06:28;14.30;99.90
43089;DHT22;28709;52.030;5.652;2024-03-02T10:08:54;14.30;99.90
43089;DHT22;28709;52.030;5.652;2024-03-02T10:11:28;14.30;99.90
43089;DHT22;28709;52.030;5.652;2024-03-02T10:14:13;14.40;99.90
43089;DHT22;28709;52.030;5.652;2024-03-02T10:16:43;14.40;99.90
43089;DHT22;28709;52.030;5.652;2024-03-02T10:19:21;14.40;99.90
43089;DHT22;28709;52.030;5.652;2024-03-02T10:21:48;14.30;99.90
43089;DHT22;28709;52.030;5.652;2024-03-02T10:24:16;14.30;99.90
43089;DHT22;28709;52.030;5.652;2024-03-02T10:26:41;14.20;99.90
43089;DHT22;28709;52.030;5.652;2024-03-02T10:29:12;14.20;99.90
43089;DHT22;28709;52.030;5.652;2024-03-02T10:31:39;14.30;99.90
43089;DHT22;28709;52.030;5.652;2024-03-02T10:34:05;14.40;99.50
43089;DHT22;28709;52.030;5.652;2024-03-02T10:36:35;14.50;99.10
43089;DHT22;28709;52.030;5.652;2024-03-02T10:39:06;14.50;99.20
43089;DHT22;28709;52.030;5.652;2024-03-02T10:41:36;14.80;98.20
43089;DHT22;28709;52.030;5.652;2024-03-02T10:44:03;14.90;98.10
43089;DHT22;28709;52.030;5.652;2024-03-02T10:46:30;15.30;98.10
43089;DHT22;28709;52.030;5.652;2024-03-02T10:48:57;15.50;98.00
43089;DHT22;28709;52.030;5.652;2024-03-02T10:51:30;15.90;96.80
43089;DHT22;28709;52.030;5.652;2024-03-02T10:53:58;16.00;96.80
43089;DHT22;28709;52.030;5.652;2024-03-02T10:56:44;16.20;96.90
43089;DHT22;28709;52.030;5.652;2024-03-02T10:59:29;16.60;96.00
43089;DHT22;28709;52.030;5.652;2024-03-02T11:01:59;16.60;95.40
43089;DHT22;28709;52.030;5.652;2024-03-02T11:04:30;16.30;95.30
43089;DHT22;28709;52.030;5.652;2024-03-02T11:07:07;16.10;95.50
43089;DHT22;28709;52.030;5.652;2024-03-02T11:09:35;16.10;95.80
43089;DHT22;28709;52.030;5.652;2024-03-02T11:14:31;16.60;95.00
43089;DHT22;28709;52.030;5.652;2024-03-02T11:17:02;16.70;94.50
43089;DHT22;28709;52.030;5.652;2024-03-02T11:19:29;16.90;94.70
43089;DHT22;28709;52.030;5.652;2024-03-02T11:21:56;17.30;94.40
43089;DHT22;28709;52.030;5.652;2024-03-02T11:26:52;16.80;94.00
43089;DHT22;28709;52.030;5.652;2024-03-02T11:32:06;16.80;93.70
43089;DHT22;28709;52.030;5.652;2024-03-02T11:34:38;17.00;92.80
43089;DHT22;28709;52.030;5.652;2024-03-02T11:37:10;16.90;92.70
43089;DHT22;28709;52.030;5.652;2024-03-02T11:39:38;16.60;93.00
43089;DHT22;28709;52.030;5.652;2024-03-02T11:42:06;16.70;92.40
43089;DHT22;28709;52.030;5.652;2024-03-02T11:44:36;16.70;92.40
43089;DHT22;28709;52.030;5.652;2024-03-02T11:47:06;16.80;92.70
43089;DHT22;28709;52.030;5.652;2024-03-02T11:49:51;17.20;93.10
43089;DHT22;28709;52.030;5.652;2024-03-02T11:52:18;17.80;92.30
43089;DHT22;28709;52.030;5.652;2024-03-02T11:54:45;17.80;91.30
43089;DHT22;28709;52.030;5.652;2024-03-02T11:57:18;17.60;92.00
43089;DHT22;28709;52.030;5.652;2024-03-02T11:59:52;17.80;91.70
43089;DHT22;28709;52.030;5.652;2024-03-02T12:02:21;18.10;91.30
43089;DHT22;28709;52.030;5.652;2024-03-02T12:04:48;18.20;90.20
43089;DHT22;28709;52.030;5.652;2024-03-02T12:07:21;18.10;90.50
43089;DHT22;28709;52.030;5.652;2024-03-02T12:10:00;18.00;90.70
43089;DHT22;28709;52.030;5.652;2024-03-02T12:12:26;17.80;90.20
43089;DHT22;28709;52.030;5.652;2024-03-02T12:14:53;17.80;90.60
43089;DHT22;28709;52.030;5.652;2024-03-02T12:17:22;18.10;90.80
43089;DHT22;28709;52.030;5.652;2024-03-02T12:19:48;18.30;89.40
43089;DHT22;28709;52.030;5.652;2024-03-02T12:22:14;17.70;87.60
43089;DHT22;28709;52.030;5.652;2024-03-02T12:24:41;16.80;89.00
43089;DHT22;28709;52.030;5.652;2024-03-02T12:27:07;16.20;90.20
43089;DHT22;28709;52.030;5.652;2024-03-02T12:29:34;15.80;90.60
43089;DHT22;28709;52.030;5.652;2024-03-02T12:32:00;15.70;91.10
43089;DHT22;28709;52.030;5.652;2024-03-02T12:34:27;15.70;91.40
43089;DHT22;28709;52.030;5.652;2024-03-02T12:36:53;15.90;91.30
43089;DHT22;28709;52.030;5.652;2024-03-02T12:39:19;15.90;90.80
43089;DHT22;28709;52.030;5.652;2024-03-02T12:41:49;16.00;90.90
43089;DHT22;28709;52.030;5.652;2024-03-02T12:44:19;16.10;91.20
43089;DHT22;28709;52.030;5.652;2024-03-02T12:46:46;16.40;91.00
43089;DHT22;28709;52.030;5.652;2024-03-02T12:49:13;16.50;90.90
43089;DHT22;28709;52.030;5.652;2024-03-02T12:51:42;16.20;91.20
43089;DHT22;28709;52.030;5.652;2024-03-02T12:54:11;15.80;91.30
43089;DHT22;28709;52.030;5.652;2024-03-02T12:56:41;15.40;91.80
43089;DHT22;28709;52.030;5.652;2024-03-02T12:59:21;15.20;92.00
43089;DHT22;28709;52.030;5.652;2024-03-02T13:01:54;15.30;92.30
43089;DHT22;28709;52.030;5.652;2024-03-02T13:04:26;15.60;92.00
43089;DHT22;28709;52.030;5.652;2024-03-02T13:06:54;16.00;91.40
43089;DHT22;28709;52.030;5.652;2024-03-02T13:09:21;16.30;91.30
43089;DHT22;28709;52.030;5.652;2024-03-02T13:11:47;16.70;90.90
43089;DHT22;28709;52.030;5.652;2024-03-02T13:14:15;16.90;90.70
43089;DHT22;28709;52.030;5.652;2024-03-02T13:16:42;16.90;91.00
43089;DHT22;28709;52.030;5.652;2024-03-02T13:19:11;16.90;90.80
43089;DHT22;28709;52.030;5.652;2024-03-02T13:21:37;17.20;90.60
43089;DHT22;28709;52.030;5.652;2024-03-02T13:24:04;17.60;89.50
43089;DHT22;28709;52.030;5.652;2024-03-02T13:26:30;17.70;88.50
43089;DHT22;28709;52.030;5.652;2024-03-02T13:28:56;17.60;87.90
43089;DHT22;28709;52.030;5.652;2024-03-02T13:31:22;17.30;88.20
43089;DHT22;28709;52.030;5.652;2024-03-02T13:33:48;17.20;88.90
43089;DHT22;28709;52.030;5.652;2024-03-02T13:36:13;17.00;89.60
43089;DHT22;28709;52.030;5.652;2024-03-02T13:38:39;17.00;89.40
43089;DHT22;28709;52.030;5.652;2024-03-02T13:41:05;17.20;90.20
43089;DHT22;28709;52.030;5.652;2024-03-02T13:43:30;17.50;89.60
43089;DHT22;28709;52.030;5.652;2024-03-02T13:46:03;17.70;88.70
43089;DHT22;28709;52.030;5.652;2024-03-02T13:48:29;17.80;89.00
43089;DHT22;28709;52.030;5.652;2024-03-02T13:50:56;17.80;87.00
43089;DHT22;28709;52.030;5.652;2024-03-02T13:53:21;17.60;88.00
43089;DHT22;28709;52.030;5.652;2024-03-02T13:55:47;17.50;88.00
43089;DHT22;28709;52.030;5.652;2024-03-02T13:58:13;17.20;88.00
43089;DHT22;28709;52.030;5.652;2024-03-02T14:00:39;16.80;89.30
43089;DHT22;28709;52.030;5.652;2024-03-02T14:03:06;16.20;90.30
43089;DHT22;28709;52.030;5.652;2024-03-02T14:05:33;15.70;90.90
43089;DHT22;28709;52.030;5.652;2024-03-02T14:07:58;15.30;91.30
43089;DHT22;28709;52.030;5.652;2024-03-02T14:10:26;15.00;92.10
43089;DHT22;28709;52.030;5.652;2024-03-02T14:12:52;14.80;92.80
43089;DHT22;28709;52.030;5.652;2024-03-02T14:15:18;14.40;93.20
43089;DHT22;28709;52.030;5.652;2024-03-02T14:17:43;14.30;93.50
43089;DHT22;28709;52.030;5.652;2024-03-02T14:20:09;14.10;93.80
43089;DHT22;28709;52.030;5.652;2024-03-02T14:22:37;14.00;94.10
43089;DHT22;28709;52.030;5.652;2024-03-02T14:25:03;13.90;94.20
43089;DHT22;28709;52.030;5.652;2024-03-02T14:27:29;13.80;94.20
43089;DHT22;28709;52.030;5.652;2024-03-02T14:29:55;13.70;94.40
43089;DHT22;28709;52.030;5.652;2024-03-02T14:32:21;13.60;94.50
43089;DHT22;28709;52.030;5.652;2024-03-02T14:34:46;13.60;94.60
43089;DHT22;28709;52.030;5.652;2024-03-02T14:37:13;13.70;94.40
43089;DHT22;28709;52.030;5.652;2024-03-02T14:39:39;13.70;94.30
43089;DHT22;28709;52.030;5.652;2024-03-02T14:42:06;13.70;94.50
43089;DHT22;28709;52.030;5.652;2024-03-02T14:44:32;13.70;94.50
43089;DHT22;28709;52.030;5.652;2024-03-02T14:46:59;13.70;94.70
43089;DHT22;28709;52.030;5.652;2024-03-02T14:49:25;13.60;94.70
43089;DHT22;28709;52.030;5.652;2024-03-02T14:51:50;13.50;94.90
43089;DHT22;28709;52.030;5.652;2024-03-02T14:54:16;13.40;95.20
43089;DHT22;28709;52.030;5.652;2024-03-02T14:56:42;13.40;95.30
43089;DHT22;28709;52.030;5.652;2024-03-02T14:59:08;13.40;95.20
43089;DHT22;28709;52.030;5.652;2024-03-02T15:01:33;13.50;95.20
43089;DHT22;28709;52.030;5.652;2024-03-02T15:03:59;13.50;95.10
43089;DHT22;28709;52.030;5.652;2024-03-02T15:06:25;13.40;94.70
43089;DHT22;28709;52.030;5.652;2024-03-02T15:08:50;13.40;94.80
43089;DHT22;28709;52.030;5.652;2024-03-02T15:11:16;13.40;94.90
43089;DHT22;28709;52.030;5.652;2024-03-02T15:13:42;13.40;94.80
43089;DHT22;28709;52.030;5.652;2024-03-02T15:16:08;13.40;94.80
43089;DHT22;28709;52.030;5.652;2024-03-02T15:18:33;13.40;94.90
43089;DHT22;28709;52.030;5.652;2024-03-02T15:21:00;13.40;95.10
43089;DHT22;28709;52.030;5.652;2024-03-02T15:23:25;13.40;95.30
43089;DHT22;28709;52.030;5.652;2024-03-02T15:25:51;13.40;95.40
43089;DHT22;28709;52.030;5.652;2024-03-02T15:28:17;13.30;95.70
43089;DHT22;28709;52.030;5.652;2024-03-02T15:30:44;13.30;95.90
43089;DHT22;28709;52.030;5.652;2024-03-02T15:33:09;13.30;96.20
43089;DHT22;28709;52.030;5.652;2024-03-02T15:35:35;13.30;96.40
43089;DHT22;28709;52.030;5.652;2024-03-02T15:38:00;13.30;96.60
43089;DHT22;28709;52.030;5.652;2024-03-02T15:40:26;13.30;96.90
43089;DHT22;28709;52.030;5.652;2024-03-02T15:42:52;13.30;97.00
43089;DHT22;28709;52.030;5.652;2024-03-02T15:45:17;13.20;97.20
43089;DHT22;28709;52.030;5.652;2024-03-02T15:47:43;13.20;97.20
43089;DHT22;28709;52.030;5.652;2024-03-02T15:50:09;13.20;97.30
43089;DHT22;28709;52.030;5.652;2024-03-02T15:52:35;13.30;97.50
43089;DHT22;28709;52.030;5.652;2024-03-02T15:55:01;13.30;97.60
43089;DHT22;28709;52.030;5.652;2024-03-02T15:57:31;13.30;97.70
43089;DHT22;28709;52.030;5.652;2024-03-02T15:59:57;13.30;97.90
43089;DHT22;28709;52.030;5.652;2024-03-02T16:02:22;13.20;98.20
43089;DHT22;28709;52.030;5.652;2024-03-02T16:04:48;13.20;98.30
43089;DHT22;28709;52.030;5.652;2024-03-02T16:07:13;13.10;98.40
43089;DHT22;28709;52.030;5.652;2024-03-02T16:09:39;13.10;98.50
43089;DHT22;28709;52.030;5.652;2024-03-02T16:12:06;13.10;98.70
43089;DHT22;28709;52.030;5.652;2024-03-02T16:14:31;13.20;98.80
43089;DHT22;28709;52.030;5.652;2024-03-02T16:16:58;13.20;98.70
43089;DHT22;28709;52.030;5.652;2024-03-02T16:19:23;13.30;98.80